createdAt,value
2018-09-17T00:00:04.331Z,17.67
2018-09-17T00:02:32.995Z,17.66
2018-09-17T00:05:01.711Z,17.66
2018-09-17T00:07:30.372Z,17.67
2018-09-17T00:09:59.066Z,17.67
2018-09-17T00:12:27.768Z,17.67
2018-09-17T00:14:56.441Z,17.68
2018-09-17T00:17:25.089Z,17.68
2018-09-17T00:19:53.765Z,17.67
2018-09-17T00:22:22.432Z,17.68
2018-09-17T00:24:51.126Z,17.68
2018-09-17T00:27:19.805Z,17.69
2018-09-17T00:29:48.498Z,17.69
2018-09-17T00:32:17.211Z,17.68
2018-09-17T00:34:45.917Z,17.69
2018-09-17T00:37:14.650Z,17.70
2018-09-17T00:39:43.372Z,17.71
2018-09-17T00:42:12.073Z,17.70
2018-09-17T00:44:40.815Z,17.71
2018-09-17T00:47:09.486Z,17.72
2018-09-17T00:49:38.168Z,17.72
2018-09-17T00:52:06.930Z,17.72
2018-09-17T00:54:35.660Z,17.69
2018-09-17T00:57:04.363Z,17.72
2018-09-17T00:59:33.916Z,17.73
2018-09-17T01:02:02.603Z,17.73
2018-09-17T01:04:31.345Z,17.72
2018-09-17T01:06:59.985Z,17.68
2018-09-17T01:09:33.798Z,17.73
2018-09-17T01:12:02.435Z,17.72
2018-09-17T01:14:31.188Z,17.71
2018-09-17T01:16:59.870Z,17.69
2018-09-17T01:19:28.548Z,17.68
2018-09-17T01:21:57.205Z,17.67
2018-09-17T01:24:25.875Z,17.68
2018-09-17T01:26:54.559Z,17.69
2018-09-17T01:29:23.237Z,17.67
2018-09-17T01:31:52.005Z,17.69
2018-09-17T01:34:20.954Z,17.69
2018-09-17T01:36:49.652Z,17.69
2018-09-17T01:39:18.367Z,17.69
2018-09-17T01:41:47.028Z,17.68
2018-09-17T01:44:15.712Z,17.69
2018-09-17T01:46:44.436Z,17.69
2018-09-17T01:49:13.199Z,17.68
2018-09-17T01:51:41.869Z,17.69
2018-09-17T01:54:10.567Z,17.68
2018-09-17T01:56:39.267Z,17.69
2018-09-17T01:59:07.971Z,17.68
2018-09-17T02:01:36.672Z,17.68
2018-09-17T02:04:05.373Z,17.67
2018-09-17T02:06:34.076Z,17.66
2018-09-17T02:09:03.071Z,17.66
2018-09-17T02:11:31.803Z,17.65
2018-09-17T02:14:00.591Z,17.66
2018-09-17T02:16:29.365Z,17.65
2018-09-17T02:18:58.135Z,17.61
2018-09-17T02:21:26.894Z,17.66
2018-09-17T02:23:55.600Z,17.66
2018-09-17T02:26:24.301Z,17.67
2018-09-17T02:28:52.996Z,17.66
2018-09-17T02:31:21.708Z,17.66
2018-09-17T02:33:50.399Z,17.66
2018-09-17T02:36:19.140Z,17.66
2018-09-17T02:38:47.833Z,17.66
2018-09-17T02:41:16.541Z,17.66
2018-09-17T02:43:45.205Z,17.66
2018-09-17T02:46:13.901Z,17.65
2018-09-17T02:48:42.560Z,17.66
2018-09-17T02:51:11.223Z,17.67
2018-09-17T02:53:39.926Z,17.67
2018-09-17T02:56:08.599Z,17.67
2018-09-17T02:58:37.316Z,17.67
2018-09-17T03:01:06.042Z,17.68
2018-09-17T03:03:34.715Z,17.68
2018-09-17T03:06:03.415Z,17.68
2018-09-17T03:08:32.096Z,17.69
2018-09-17T03:11:00.750Z,17.68
2018-09-17T03:13:29.457Z,17.69
2018-09-17T03:15:58.143Z,17.69
2018-09-17T03:18:38.718Z,17.69
2018-09-17T03:21:08.040Z,17.69
2018-09-17T03:23:37.747Z,17.69
2018-09-17T03:26:06.487Z,17.69
2018-09-17T03:28:35.174Z,17.70
2018-09-17T03:31:03.852Z,17.70
2018-09-17T03:33:32.536Z,17.70
2018-09-17T03:36:01.271Z,17.70
2018-09-17T03:38:38.053Z,17.69
2018-09-17T03:41:07.551Z,17.69
2018-09-17T03:43:37.175Z,17.69
2018-09-17T03:46:05.870Z,17.68
2018-09-17T03:48:35.328Z,17.68
2018-09-17T03:51:04.792Z,17.69
2018-09-17T03:53:33.857Z,17.69
2018-09-17T03:56:02.574Z,17.68
2018-09-17T03:58:31.454Z,17.68
2018-09-17T04:01:01.024Z,17.68
2018-09-17T04:03:29.765Z,17.69
2018-09-17T04:05:58.509Z,17.69
2018-09-17T04:08:27.235Z,17.64
2018-09-17T04:10:55.924Z,17.67
2018-09-17T04:13:24.597Z,17.69
2018-09-17T04:15:53.280Z,17.68
2018-09-17T04:18:21.971Z,17.68
2018-09-17T04:20:50.651Z,17.68
2018-09-17T04:23:24.370Z,17.66
2018-09-17T04:25:53.076Z,17.64
2018-09-17T04:28:21.761Z,17.63
2018-09-17T04:30:50.488Z,17.62
2018-09-17T04:33:19.223Z,17.62
2018-09-17T04:35:48.046Z,17.62
2018-09-17T04:38:16.759Z,17.61
2018-09-17T04:40:45.476Z,17.61
2018-09-17T04:43:14.188Z,17.60
2018-09-17T04:45:43.138Z,17.60
2018-09-17T04:48:11.816Z,17.60
2018-09-17T04:50:40.512Z,17.59
2018-09-17T04:53:09.216Z,17.58
2018-09-17T04:55:37.884Z,17.58
2018-09-17T04:58:06.651Z,17.59
2018-09-17T05:00:35.353Z,17.58
2018-09-17T05:03:04.061Z,17.57
2018-09-17T05:05:32.703Z,17.56
2018-09-17T05:08:01.428Z,17.57
2018-09-17T05:10:30.140Z,17.55
2018-09-17T05:12:58.856Z,17.55
2018-09-17T05:15:27.517Z,17.55
2018-09-17T05:17:56.182Z,17.54
2018-09-17T05:20:24.844Z,17.55
2018-09-17T05:22:53.514Z,17.53
2018-09-17T05:25:22.373Z,17.53
2018-09-17T05:27:51.018Z,17.53
2018-09-17T05:30:19.688Z,17.54
2018-09-17T05:32:48.390Z,17.53
2018-09-17T05:35:17.058Z,17.53
2018-09-17T05:37:45.717Z,17.52
2018-09-17T05:40:14.445Z,17.51
2018-09-17T05:42:43.135Z,17.50
2018-09-17T05:45:11.804Z,17.49
2018-09-17T05:47:40.460Z,17.49
2018-09-17T05:50:09.142Z,17.48
2018-09-17T05:52:37.848Z,17.47
2018-09-17T05:55:06.637Z,17.48
2018-09-17T05:57:35.347Z,17.49
2018-09-17T06:00:04.139Z,17.48
2018-09-17T06:02:32.827Z,17.50
2018-09-17T06:05:01.554Z,17.49
2018-09-17T06:07:30.233Z,17.51
2018-09-17T06:09:58.980Z,17.51
2018-09-17T06:12:27.649Z,17.52
2018-09-17T06:14:56.334Z,17.52
2018-09-17T06:17:25.033Z,17.53
2018-09-17T06:19:53.835Z,17.54
2018-09-17T06:22:22.515Z,17.56
2018-09-17T06:24:51.168Z,17.57
2018-09-17T06:27:19.872Z,17.57
2018-09-17T06:29:48.525Z,17.58
2018-09-17T06:32:17.231Z,17.58
2018-09-17T06:34:45.909Z,17.59
2018-09-17T06:37:14.583Z,17.60
2018-09-17T06:39:43.283Z,17.61
2018-09-17T06:42:12.009Z,17.62
2018-09-17T06:44:40.765Z,17.64
2018-09-17T06:47:09.563Z,17.65
2018-09-17T06:49:38.262Z,17.69
2018-09-17T06:52:07.148Z,17.69
2018-09-17T06:54:36.168Z,17.71
2018-09-17T06:57:04.991Z,17.75
2018-09-17T06:59:34.316Z,17.78
2018-09-17T07:02:03.265Z,17.79
2018-09-17T07:04:32.200Z,17.81
2018-09-17T07:07:00.898Z,17.84
2018-09-17T07:09:29.656Z,17.85
2018-09-17T07:11:58.416Z,17.87
2018-09-17T07:14:27.171Z,17.89
2018-09-17T07:16:55.912Z,17.91
2018-09-17T07:19:24.670Z,17.94
2018-09-17T07:21:53.404Z,17.96
2018-09-17T07:24:22.193Z,17.97
2018-09-17T07:26:50.892Z,18.00
2018-09-17T07:29:19.561Z,18.02
2018-09-17T07:31:48.236Z,18.03
2018-09-17T07:34:16.950Z,18.04
2018-09-17T07:36:45.676Z,18.07
2018-09-17T07:39:14.340Z,18.08
2018-09-17T07:41:43.017Z,18.11
2018-09-17T07:44:11.659Z,18.13
2018-09-17T07:46:40.376Z,18.14
2018-09-17T07:49:09.059Z,18.15
2018-09-17T07:51:37.772Z,18.16
2018-09-17T07:54:06.476Z,18.16
2018-09-17T07:56:35.177Z,18.20
2018-09-17T07:59:03.889Z,18.23
2018-09-17T08:01:32.616Z,18.26
2018-09-17T08:04:01.282Z,18.30
2018-09-17T08:06:30.029Z,18.33
2018-09-17T08:08:58.677Z,18.39
2018-09-17T08:11:28.436Z,18.46
2018-09-17T08:13:57.131Z,18.52
2018-09-17T08:16:25.862Z,18.56
2018-09-17T08:18:55.054Z,18.62
2018-09-17T08:21:23.745Z,18.68
2018-09-17T08:23:52.524Z,18.72
2018-09-17T08:26:21.230Z,18.77
2018-09-17T08:28:49.955Z,18.82
2018-09-17T08:31:18.835Z,18.87
2018-09-17T08:33:47.523Z,18.92
2018-09-17T08:36:16.228Z,18.96
2018-09-17T08:38:45.078Z,18.99
2018-09-17T08:41:13.821Z,19.05
2018-09-17T08:43:42.558Z,19.10
2018-09-17T08:46:11.264Z,19.17
2018-09-17T08:48:40.009Z,19.22
2018-09-17T08:51:08.761Z,19.28
2018-09-17T08:53:37.487Z,19.34
2018-09-17T08:56:11.560Z,19.41
2018-09-17T08:58:45.272Z,19.47
2018-09-17T09:01:19.098Z,19.49
2018-09-17T09:03:52.935Z,19.52
2018-09-17T09:06:25.786Z,19.52
2018-09-17T09:08:54.492Z,19.51
2018-09-17T09:12:27.466Z,19.51
2018-09-17T09:14:56.244Z,19.48
2018-09-17T09:17:25.022Z,19.47
2018-09-17T09:19:53.760Z,19.42
2018-09-17T09:22:22.489Z,19.41
2018-09-17T09:24:51.215Z,19.41
2018-09-17T09:27:19.980Z,19.46
2018-09-17T09:29:48.693Z,19.49
2018-09-17T09:32:17.415Z,19.54
2018-09-17T09:34:46.152Z,19.62
2018-09-17T09:37:14.899Z,19.68
2018-09-17T09:39:43.630Z,19.71
2018-09-17T09:42:12.339Z,19.70
2018-09-17T09:44:41.047Z,19.69
2018-09-17T09:47:09.733Z,19.69
2018-09-17T09:49:38.468Z,19.70
2018-09-17T09:52:07.375Z,19.69
2018-09-17T09:54:36.065Z,19.72
2018-09-17T09:57:04.890Z,19.74
2018-09-17T09:59:33.814Z,19.75
2018-09-17T10:02:07.619Z,19.76
2018-09-17T10:04:36.365Z,19.75
2018-09-17T10:07:05.123Z,19.72
2018-09-17T10:09:38.904Z,19.70
2018-09-17T10:12:12.805Z,19.69
2018-09-17T10:14:46.516Z,19.67
2018-09-17T10:17:20.322Z,19.66
2018-09-17T10:19:49.856Z,19.64
2018-09-17T10:22:19.003Z,19.65
2018-09-17T10:24:47.756Z,19.66
2018-09-17T10:27:17.308Z,19.65
2018-09-17T10:29:46.136Z,19.66
2018-09-17T10:32:15.084Z,19.69
2018-09-17T10:34:43.820Z,19.71
2018-09-17T10:37:12.671Z,19.69
2018-09-17T10:39:41.537Z,19.66
2018-09-17T10:42:10.231Z,19.62
2018-09-17T10:44:38.942Z,19.62
2018-09-17T10:47:07.648Z,19.63
2018-09-17T10:49:36.370Z,19.63
2018-09-17T10:52:05.117Z,19.63
2018-09-17T10:54:33.825Z,19.59
2018-09-17T10:57:02.537Z,19.56
2018-09-17T10:59:31.243Z,19.51
2018-09-17T11:01:59.991Z,19.48
2018-09-17T11:04:28.732Z,19.48
2018-09-17T11:06:57.443Z,19.50
2018-09-17T11:09:26.197Z,19.54
2018-09-17T11:11:54.942Z,19.59
2018-09-17T11:14:23.720Z,19.65
2018-09-17T11:16:52.445Z,19.73
2018-09-17T11:19:21.239Z,19.78
2018-09-17T11:21:50.100Z,19.78
2018-09-17T11:24:18.848Z,19.78
2018-09-17T11:26:47.646Z,19.80
2018-09-17T11:29:16.420Z,19.81
2018-09-17T11:31:45.179Z,19.79
2018-09-17T11:34:13.905Z,19.75
2018-09-17T11:36:42.640Z,19.72
2018-09-17T11:39:11.783Z,19.71
2018-09-17T11:41:40.959Z,19.70
2018-09-17T11:44:09.741Z,19.69
2018-09-17T11:46:38.638Z,19.74
2018-09-17T11:49:07.353Z,19.84
2018-09-17T11:51:36.056Z,19.94
2018-09-17T11:54:04.965Z,20.07
2018-09-17T11:56:33.643Z,20.08
2018-09-17T11:59:02.382Z,20.06
2018-09-17T12:01:36.325Z,20.02
2018-09-17T12:04:10.204Z,19.99
2018-09-17T12:06:44.023Z,19.93
2018-09-17T12:09:12.852Z,19.95
2018-09-17T12:11:42.100Z,19.98
2018-09-17T12:14:10.914Z,20.03
2018-09-17T12:16:39.677Z,20.14
2018-09-17T12:19:08.496Z,20.23
2018-09-17T12:21:37.212Z,20.19
2018-09-17T12:24:06.037Z,20.20
2018-09-17T12:26:34.781Z,20.18
2018-09-17T12:29:03.483Z,20.16
2018-09-17T12:31:32.256Z,20.16
2018-09-17T12:34:01.025Z,20.12
2018-09-17T12:36:30.233Z,20.11
2018-09-17T12:38:58.497Z,20.11
2018-09-17T12:41:27.241Z,20.13
2018-09-17T12:43:56.284Z,20.13
2018-09-17T12:46:25.083Z,20.13
2018-09-17T12:48:53.928Z,20.16
2018-09-17T12:51:22.689Z,20.20
2018-09-17T12:53:51.513Z,20.24
2018-09-17T12:56:20.301Z,20.24
2018-09-17T12:58:49.062Z,20.24
2018-09-17T13:01:17.773Z,20.23
2018-09-17T13:03:46.515Z,20.23
2018-09-17T13:06:15.296Z,20.20
2018-09-17T13:08:43.960Z,20.17
2018-09-17T13:11:12.724Z,20.13
2018-09-17T13:13:41.416Z,20.13
2018-09-17T13:16:10.136Z,20.12
2018-09-17T13:18:38.946Z,20.12
2018-09-17T13:21:07.680Z,20.15
2018-09-17T13:23:36.385Z,20.24
2018-09-17T13:26:05.150Z,20.41
2018-09-17T13:28:33.855Z,20.51
2018-09-17T13:31:02.575Z,20.64
2018-09-17T13:33:31.338Z,20.81
2018-09-17T13:36:00.098Z,20.96
2018-09-17T13:38:28.823Z,21.06
2018-09-17T13:40:57.537Z,21.10
2018-09-17T13:43:26.260Z,21.14
2018-09-17T13:45:55.064Z,21.11
2018-09-17T13:48:23.759Z,21.37
2018-09-17T13:50:52.491Z,21.85
2018-09-17T13:53:21.217Z,21.87
2018-09-17T13:55:49.928Z,21.88
2018-09-17T13:58:18.620Z,21.93
2018-09-17T14:00:47.302Z,22.24
2018-09-17T14:03:16.018Z,22.50
2018-09-17T14:05:44.741Z,22.85
2018-09-17T14:08:13.419Z,23.06
2018-09-17T14:10:42.076Z,23.28
2018-09-17T14:13:10.787Z,23.33
2018-09-17T14:15:42.631Z,23.16
2018-09-17T14:18:11.309Z,22.98
2018-09-17T14:20:39.973Z,23.05
2018-09-17T14:25:36.263Z,23.39
2018-09-17T14:28:04.948Z,23.41
2018-09-17T14:30:33.666Z,23.51
2018-09-17T14:33:07.509Z,23.57
2018-09-17T14:35:36.249Z,23.76
2018-09-17T14:38:04.854Z,23.88
2018-09-17T14:40:33.607Z,23.88
2018-09-17T14:43:02.592Z,23.89
2018-09-17T14:45:31.472Z,24.01
2018-09-17T14:48:00.180Z,24.07
2018-09-17T14:50:28.907Z,24.15
2018-09-17T14:52:57.813Z,24.25
2018-09-17T14:55:26.635Z,24.36
2018-09-17T14:57:55.332Z,24.37
2018-09-17T15:00:24.119Z,24.43
2018-09-17T15:02:52.827Z,24.51
2018-09-17T15:05:21.652Z,24.51
2018-09-17T15:07:50.485Z,24.57
2018-09-17T15:10:19.266Z,24.68
2018-09-17T15:12:47.888Z,24.79
2018-09-17T15:15:16.718Z,24.76
2018-09-17T15:17:45.363Z,24.74
2018-09-17T15:20:14.254Z,24.83
2018-09-17T15:22:42.877Z,24.79
2018-09-17T15:25:11.590Z,24.85
2018-09-17T15:27:40.272Z,24.87
2018-09-17T15:30:08.964Z,24.85
2018-09-17T15:32:37.683Z,24.73
2018-09-17T15:35:06.357Z,24.76
2018-09-17T15:37:35.043Z,24.91
2018-09-17T15:40:03.898Z,24.94
2018-09-17T15:42:32.598Z,24.91
2018-09-17T15:45:01.276Z,24.89
2018-09-17T15:47:29.938Z,24.92
2018-09-17T15:49:58.638Z,24.85
2018-09-17T15:52:27.272Z,24.89
2018-09-17T15:54:55.944Z,24.92
2018-09-17T15:57:24.641Z,24.85
2018-09-17T15:59:53.296Z,24.82
2018-09-17T16:02:21.951Z,24.83
2018-09-17T16:04:50.618Z,24.99
2018-09-17T16:07:19.318Z,25.06
2018-09-17T16:09:47.954Z,25.19
2018-09-17T16:12:16.731Z,25.29
2018-09-17T16:14:45.427Z,25.42
2018-09-17T16:17:14.109Z,25.56
2018-09-17T16:19:42.771Z,25.67
2018-09-17T16:22:11.502Z,25.60
2018-09-17T16:24:40.167Z,25.47
2018-09-17T16:27:08.839Z,25.57
2018-09-17T16:29:37.516Z,25.59
2018-09-17T16:32:06.270Z,25.56
2018-09-17T16:34:34.985Z,25.50
2018-09-17T16:37:03.672Z,25.54
2018-09-17T16:39:32.409Z,25.45
2018-09-17T16:42:01.127Z,25.29
2018-09-17T16:44:29.815Z,25.35
2018-09-17T16:46:58.619Z,25.39
2018-09-17T16:49:27.235Z,25.31
2018-09-17T16:51:55.925Z,25.32
2018-09-17T16:54:24.596Z,25.34
2018-09-17T16:56:53.316Z,25.39
2018-09-17T16:59:22.072Z,25.50
2018-09-17T17:01:50.764Z,25.66
2018-09-17T17:04:19.466Z,25.68
2018-09-17T17:06:48.209Z,25.52
2018-09-17T17:09:16.903Z,25.43
2018-09-17T17:11:45.639Z,25.40
2018-09-17T17:14:14.368Z,25.18
2018-09-17T17:16:43.069Z,24.96
2018-09-17T17:19:11.837Z,24.72
2018-09-17T17:21:40.519Z,24.31
2018-09-17T17:24:09.244Z,23.90
2018-09-17T17:26:37.902Z,23.51
2018-09-17T17:31:34.315Z,23.05
2018-09-17T17:34:03.072Z,22.87
2018-09-17T17:36:31.833Z,22.68
2018-09-17T17:39:00.602Z,22.49
2018-09-17T17:41:29.520Z,22.33
2018-09-17T17:43:58.538Z,22.13
2018-09-17T17:46:27.428Z,21.94
2018-09-17T17:48:56.183Z,21.79
2018-09-17T17:51:25.129Z,21.64
2018-09-17T17:53:53.978Z,21.47
2018-09-17T17:56:23.351Z,21.31
2018-09-17T17:58:52.161Z,21.21
2018-09-17T18:01:21.134Z,21.10
2018-09-17T18:03:49.996Z,20.96
2018-09-17T18:06:18.812Z,20.87
2018-09-17T18:08:47.637Z,20.79
2018-09-17T18:11:16.451Z,20.65
2018-09-17T18:13:45.232Z,20.55
2018-09-17T18:16:14.130Z,20.43
2018-09-17T18:18:43.015Z,20.30
2018-09-17T18:21:11.979Z,20.22
2018-09-17T18:23:40.774Z,20.12
2018-09-17T18:26:09.507Z,20.05
2018-09-17T18:28:38.265Z,19.98
2018-09-17T18:31:07.013Z,19.91
2018-09-17T18:33:35.728Z,19.84
2018-09-17T18:36:04.436Z,19.79
2018-09-17T18:38:33.143Z,19.73
2018-09-17T18:41:01.920Z,19.68
2018-09-17T18:43:30.656Z,19.63
2018-09-17T18:45:59.404Z,19.60
2018-09-17T18:48:28.114Z,19.57
2018-09-17T18:50:56.876Z,19.56
2018-09-17T18:53:25.583Z,19.54
2018-09-17T18:55:54.338Z,19.54
2018-09-17T18:58:23.042Z,19.52
2018-09-17T19:00:51.696Z,19.51
2018-09-17T19:03:20.503Z,19.50
2018-09-17T19:05:49.191Z,19.48
2018-09-17T19:08:17.889Z,19.47
2018-09-17T19:10:46.612Z,19.47
2018-09-17T19:13:15.302Z,19.45
2018-09-17T19:15:49.046Z,19.44
2018-09-17T19:18:18.914Z,19.44
2018-09-17T19:20:48.982Z,19.43
2018-09-17T19:23:22.572Z,19.42
2018-09-17T19:25:51.421Z,19.42
2018-09-17T19:28:25.445Z,19.42
2018-09-17T19:30:54.124Z,19.43
2018-09-17T19:33:22.827Z,19.43
2018-09-17T19:35:51.632Z,19.43
2018-09-17T19:38:25.366Z,19.43
2018-09-17T19:40:54.076Z,19.42
2018-09-17T19:43:22.932Z,19.42
2018-09-17T19:45:56.746Z,19.41
2018-09-17T19:48:25.378Z,19.39
2018-09-17T19:53:01.416Z,19.37
2018-09-17T19:55:30.220Z,19.33
2018-09-17T19:58:04.084Z,19.32
2018-09-17T20:00:33.040Z,19.31
2018-09-17T20:03:01.580Z,19.30
2018-09-17T20:05:37.568Z,19.30
2018-09-17T20:08:06.284Z,19.28
2018-09-17T20:10:35.012Z,19.27
2018-09-17T20:13:03.761Z,19.26
2018-09-17T20:15:32.536Z,19.27
2018-09-17T20:18:01.238Z,19.26
2018-09-17T20:20:30.059Z,19.25
2018-09-17T20:22:58.759Z,19.24
2018-09-17T20:25:27.491Z,19.23
2018-09-17T20:27:56.910Z,19.23
2018-09-17T20:30:25.680Z,19.24
2018-09-17T20:32:54.495Z,19.25
2018-09-17T20:35:23.509Z,19.24
2018-09-17T20:37:54.305Z,19.25
2018-09-17T20:40:23.008Z,19.26
2018-09-17T20:42:51.699Z,19.26
2018-09-17T20:45:20.417Z,19.27
2018-09-17T20:47:49.120Z,19.27
2018-09-17T20:50:17.837Z,19.28
2018-09-17T20:52:46.528Z,19.29
2018-09-17T20:55:15.327Z,19.29
2018-09-17T20:57:43.957Z,19.29
2018-09-17T21:00:12.721Z,19.30
2018-09-17T21:02:41.547Z,19.28
2018-09-17T21:05:10.490Z,19.29
2018-09-17T21:07:39.234Z,19.29
2018-09-17T21:10:08.195Z,19.29
2018-09-17T21:12:37.118Z,19.29
2018-09-17T21:15:06.393Z,19.29
2018-09-17T21:17:35.575Z,19.29
2018-09-17T21:20:04.708Z,19.30
2018-09-17T21:22:33.605Z,19.30
2018-09-17T21:25:02.625Z,19.31
2018-09-17T21:27:31.425Z,19.31
2018-09-17T21:30:00.096Z,19.32
2018-09-17T21:32:28.816Z,19.32
2018-09-17T21:34:57.503Z,19.33
2018-09-17T21:37:26.225Z,19.33
2018-09-17T21:39:54.930Z,19.34
2018-09-17T21:42:23.608Z,19.33
2018-09-17T21:44:52.298Z,19.33
2018-09-17T21:47:20.992Z,19.32
2018-09-17T21:49:49.698Z,19.33
2018-09-17T21:52:18.419Z,19.31
2018-09-17T21:54:47.132Z,19.31
2018-09-17T21:57:15.777Z,19.31
2018-09-17T21:59:44.475Z,19.30
2018-09-17T22:02:13.425Z,19.30
2018-09-17T22:04:42.132Z,19.31
2018-09-17T22:07:10.817Z,19.30
2018-09-17T22:09:40.131Z,19.30
2018-09-17T22:12:08.836Z,19.29
2018-09-17T22:14:37.557Z,19.28
2018-09-17T22:17:06.281Z,19.26
2018-09-17T22:19:35.015Z,19.21
2018-09-17T22:22:03.785Z,19.17
2018-09-17T22:24:32.525Z,19.15
2018-09-17T22:27:01.205Z,19.11
2018-09-17T22:29:29.943Z,19.10
2018-09-17T22:31:58.655Z,19.09
2018-09-17T22:34:27.343Z,19.09
2018-09-17T22:36:56.072Z,19.09
2018-09-17T22:39:24.796Z,19.09
2018-09-17T22:41:53.510Z,19.11
2018-09-17T22:44:22.184Z,19.12
2018-09-17T22:46:50.925Z,19.13
2018-09-17T22:49:19.611Z,19.14
2018-09-17T22:51:48.335Z,19.14
2018-09-17T22:54:16.992Z,19.14
2018-09-17T22:56:45.720Z,19.14
2018-09-17T22:59:14.418Z,19.15
2018-09-17T23:01:43.112Z,19.13
2018-09-17T23:04:11.803Z,19.11
2018-09-17T23:06:40.532Z,19.09
2018-09-17T23:09:10.510Z,19.09
2018-09-17T23:11:39.287Z,19.07
2018-09-17T23:14:07.975Z,19.06
2018-09-17T23:16:36.803Z,19.02
2018-09-17T23:19:05.554Z,19.02
2018-09-17T23:21:34.233Z,19.01
2018-09-17T23:24:02.968Z,19.01
2018-09-17T23:26:31.658Z,19.00
2018-09-17T23:29:00.409Z,19.00
2018-09-17T23:31:29.089Z,19.01
2018-09-17T23:33:57.764Z,18.99
2018-09-17T23:36:26.460Z,18.98
2018-09-17T23:38:55.200Z,18.99
2018-09-17T23:41:23.957Z,19.00
2018-09-17T23:43:52.644Z,19.01
2018-09-17T23:46:21.353Z,19.00
2018-09-17T23:48:50.104Z,19.00
2018-09-17T23:51:18.800Z,18.99
2018-09-17T23:53:47.488Z,19.00
2018-09-17T23:56:16.159Z,18.98
2018-09-17T23:58:44.824Z,18.97
